sensor_id;sensor_type;location;lat;lon;timestamp;temperature;humidity
3954;DHT22;1991;48.682;9.030;2022-09-25T00:00:20;12.60;99.90
3954;DHT22;1991;48.682;9.030;2022-09-25T00:02:46;12.50;99.90
3954;DHT22;1991;48.682;9.030;2022-09-25T00:05:11;12.50;99.90
3954;DHT22;1991;48.682;9.030;2022-09-25T00:07:37;12.50;99.90
3954;DHT22;1991;48.682;9.030;2022-09-25T00:10:03;12.50;99.90
3954;DHT22;1991;48.682;9.030;2022-09-25T00:12:28;12.60;99.90
3954;DHT22;1991;48.682;9.030;2022-09-25T00:14:54;12.60;99.90
3954;DHT22;1991;48.682;9.030;2022-09-25T00:17:20;12.60;99.90
3954;DHT22;1991;48.682;9.030;2022-09-25T00:19:46;12.50;99.90
3954;DHT22;1991;48.682;9.030;2022-09-25T00:22:16;12.60;99.90
3954;DHT22;1991;48.682;9.030;2022-09-25T00:24:42;12.50;99.90
3954;DHT22;1991;48.682;9.030;2022-09-25T00:27:08;12.40;99.90
3954;DHT22;1991;48.682;9.030;2022-09-25T00:29:35;12.50;99.90
3954;DHT22;1991;48.682;9.030;2022-09-25T00:32:03;12.50;99.90
3954;DHT22;1991;48.682;9.030;2022-09-25T00:34:28;12.60;99.90
3954;DHT22;1991;48.682;9.030;2022-09-25T00:36:54;12.50;99.90
3954;DHT22;1991;48.682;9.030;2022-09-25T00:39:20;12.50;99.90
3954;DHT22;1991;48.682;9.030;2022-09-25T00:41:45;12.50;99.90
3954;DHT22;1991;48.682;9.030;2022-09-25T00:47:09;12.50;99.90
3954;DHT22;1991;48.682;9.030;2022-09-25T00:49:35;12.50;99.90
3954;DHT22;1991;48.682;9.030;2022-09-25T00:52:05;12.50;99.90
3954;DHT22;1991;48.682;9.030;2022-09-25T00:54:35;12.50;99.90
3954;DHT22;1991;48.682;9.030;2022-09-25T00:57:06;12.40;99.90
3954;DHT22;1991;48.682;9.030;2022-09-25T00:59:37;12.50;99.90
3954;DHT22;1991;48.682;9.030;2022-09-25T01:02:05;12.50;99.90
3954;DHT22;1991;48.682;9.030;2022-09-25T01:04:34;12.40;99.90
3954;DHT22;1991;48.682;9.030;2022-09-25T01:07:02;12.50;99.90
3954;DHT22;1991;48.682;9.030;2022-09-25T01:09:28;12.40;99.90
3954;DHT22;1991;48.682;9.030;2022-09-25T01:11:55;12.30;99.90
3954;DHT22;1991;48.682;9.030;2022-09-25T01:14:21;12.40;99.90
3954;DHT22;1991;48.682;9.030;2022-09-25T01:23:03;12.40;99.90
3954;DHT22;1991;48.682;9.030;2022-09-25T01:31:41;12.40;99.90
3954;DHT22;1991;48.682;9.030;2022-09-25T01:37:07;12.30;99.90
3954;DHT22;1991;48.682;9.030;2022-09-25T01:39:42;12.30;99.90
3954;DHT22;1991;48.682;9.030;2022-09-25T01:42:18;12.30;99.90
3954;DHT22;1991;48.682;9.030;2022-09-25T01:44:53;12.30;99.90
3954;DHT22;1991;48.682;9.030;2022-09-25T01:47:24;12.30;99.90
3954;DHT22;1991;48.682;9.030;2022-09-25T01:49:58;12.40;99.90
3954;DHT22;1991;48.682;9.030;2022-09-25T01:52:33;12.30;99.90
3954;DHT22;1991;48.682;9.030;2022-09-25T01:55:07;12.40;99.90
3954;DHT22;1991;48.682;9.030;2022-09-25T01:57:49;12.40;99.90
3954;DHT22;1991;48.682;9.030;2022-09-25T02:00:20;12.40;99.90
3954;DHT22;1991;48.682;9.030;2022-09-25T02:03:00;12.40;99.90
3954;DHT22;1991;48.682;9.030;2022-09-25T02:08:07;12.40;99.90
3954;DHT22;1991;48.682;9.030;2022-09-25T02:10:42;12.40;99.90
3954;DHT22;1991;48.682;9.030;2022-09-25T02:13:15;12.40;99.90
3954;DHT22;1991;48.682;9.030;2022-09-25T02:15:56;12.40;99.90
3954;DHT22;1991;48.682;9.030;2022-09-25T02:18:24;12.40;99.90
3954;DHT22;1991;48.682;9.030;2022-09-25T02:21:38;12.40;99.90
3954;DHT22;1991;48.682;9.030;2022-09-25T02:27:13;12.40;99.90
3954;DHT22;1991;48.682;9.030;2022-09-25T02:29:40;12.40;99.90
3954;DHT22;1991;48.682;9.030;2022-09-25T02:32:10;12.40;99.90
3954;DHT22;1991;48.682;9.030;2022-09-25T02:34:37;12.40;99.90
3954;DHT22;1991;48.682;9.030;2022-09-25T02:37:10;12.40;99.90
3954;DHT22;1991;48.682;9.030;2022-09-25T02:39:36;12.40;99.90
3954;DHT22;1991;48.682;9.030;2022-09-25T02:55:39;12.40;99.90
3954;DHT22;1991;48.682;9.030;2022-09-25T02:58:10;12.40;99.90
3954;DHT22;1991;48.682;9.030;2022-09-25T03:00:39;12.40;99.90
3954;DHT22;1991;48.682;9.030;2022-09-25T03:03:08;12.40;99.90
3954;DHT22;1991;48.682;9.030;2022-09-25T03:05:36;12.40;99.90
3954;DHT22;1991;48.682;9.030;2022-09-25T03:08:02;12.30;99.90
3954;DHT22;1991;48.682;9.030;2022-09-25T03:10:46;12.30;99.90
3954;DHT22;1991;48.682;9.030;2022-09-25T03:13:18;12.30;99.90
3954;DHT22;1991;48.682;9.030;2022-09-25T03:15:49;12.30;99.90
3954;DHT22;1991;48.682;9.030;2022-09-25T03:18:16;12.20;99.90
3954;DHT22;1991;48.682;9.030;2022-09-25T03:20:42;12.20;99.90
3954;DHT22;1991;48.682;9.030;2022-09-25T03:23:08;12.20;99.90
3954;DHT22;1991;48.682;9.030;2022-09-25T03:25:34;12.30;99.90
3954;DHT22;1991;48.682;9.030;2022-09-25T03:28:00;12.20;99.90
3954;DHT22;1991;48.682;9.030;2022-09-25T03:30:26;12.30;99.90
3954;DHT22;1991;48.682;9.030;2022-09-25T03:32:53;12.20;99.90
3954;DHT22;1991;48.682;9.030;2022-09-25T03:35:32;12.20;99.90
3954;DHT22;1991;48.682;9.030;2022-09-25T03:37:57;12.20;99.90
3954;DHT22;1991;48.682;9.030;2022-09-25T03:40:23;12.20;99.90
3954;DHT22;1991;48.682;9.030;2022-09-25T03:42:49;12.20;99.90
3954;DHT22;1991;48.682;9.030;2022-09-25T03:45:14;12.20;99.90
3954;DHT22;1991;48.682;9.030;2022-09-25T03:47:40;12.20;99.90
3954;DHT22;1991;48.682;9.030;2022-09-25T03:50:06;12.20;99.90
3954;DHT22;1991;48.682;9.030;2022-09-25T03:52:33;12.20;99.90
3954;DHT22;1991;48.682;9.030;2022-09-25T03:54:58;12.20;99.90
3954;DHT22;1991;48.682;9.030;2022-09-25T03:57:24;12.20;99.90
3954;DHT22;1991;48.682;9.030;2022-09-25T03:59:50;12.20;99.90
3954;DHT22;1991;48.682;9.030;2022-09-25T04:02:16;12.20;99.90
3954;DHT22;1991;48.682;9.030;2022-09-25T04:04:42;12.20;99.90
3954;DHT22;1991;48.682;9.030;2022-09-25T04:07:10;12.20;99.90
3954;DHT22;1991;48.682;9.030;2022-09-25T04:09:36;12.20;99.90
3954;DHT22;1991;48.682;9.030;2022-09-25T04:12:02;12.20;99.90
3954;DHT22;1991;48.682;9.030;2022-09-25T04:14:30;12.20;99.90
3954;DHT22;1991;48.682;9.030;2022-09-25T04:16:56;12.20;99.90
3954;DHT22;1991;48.682;9.030;2022-09-25T04:19:22;12.20;99.90
3954;DHT22;1991;48.682;9.030;2022-09-25T04:21:47;12.20;99.90
3954;DHT22;1991;48.682;9.030;2022-09-25T04:24:13;12.20;99.90
3954;DHT22;1991;48.682;9.030;2022-09-25T04:26:57;12.20;99.90
3954;DHT22;1991;48.682;9.030;2022-09-25T04:29:22;12.20;99.90
3954;DHT22;1991;48.682;9.030;2022-09-25T04:31:49;12.30;99.90
3954;DHT22;1991;48.682;9.030;2022-09-25T04:34:34;12.30;99.90
3954;DHT22;1991;48.682;9.030;2022-09-25T04:37:00;12.30;99.90
3954;DHT22;1991;48.682;9.030;2022-09-25T04:39:26;12.30;99.90
3954;DHT22;1991;48.682;9.030;2022-09-25T04:41:51;12.20;99.90
3954;DHT22;1991;48.682;9.030;2022-09-25T04:44:17;12.30;99.90
3954;DHT22;1991;48.682;9.030;2022-09-25T04:46:43;12.20;99.90
3954;DHT22;1991;48.682;9.030;2022-09-25T04:49:08;12.30;99.90
3954;DHT22;1991;48.682;9.030;2022-09-25T04:51:34;12.20;99.90
3954;DHT22;1991;48.682;9.030;2022-09-25T04:53:59;12.20;99.90
3954;DHT22;1991;48.682;9.030;2022-09-25T04:56:25;12.20;99.90
3954;DHT22;1991;48.682;9.030;2022-09-25T04:58:51;12.10;99.90
3954;DHT22;1991;48.682;9.030;2022-09-25T05:01:18;12.20;99.90
3954;DHT22;1991;48.682;9.030;2022-09-25T05:03:51;12.20;99.90
3954;DHT22;1991;48.682;9.030;2022-09-25T05:06:18;12.30;99.90
3954;DHT22;1991;48.682;9.030;2022-09-25T05:08:47;12.30;99.90
3954;DHT22;1991;48.682;9.030;2022-09-25T05:11:14;12.20;99.90
3954;DHT22;1991;48.682;9.030;2022-09-25T05:13:39;12.30;99.90
3954;DHT22;1991;48.682;9.030;2022-09-25T05:16:06;12.20;99.90
3954;DHT22;1991;48.682;9.030;2022-09-25T05:18:32;12.30;99.90
3954;DHT22;1991;48.682;9.030;2022-09-25T05:21:02;12.30;99.90
3954;DHT22;1991;48.682;9.030;2022-09-25T05:23:28;12.30;99.90
3954;DHT22;1991;48.682;9.030;2022-09-25T05:25:54;12.20;99.90
3954;DHT22;1991;48.682;9.030;2022-09-25T05:28:22;12.30;99.90
3954;DHT22;1991;48.682;9.030;2022-09-25T05:30:49;12.30;99.90
3954;DHT22;1991;48.682;9.030;2022-09-25T05:33:15;12.20;99.90
3954;DHT22;1991;48.682;9.030;2022-09-25T05:35:42;12.20;99.90
3954;DHT22;1991;48.682;9.030;2022-09-25T05:38:08;12.20;99.90
3954;DHT22;1991;48.682;9.030;2022-09-25T05:40:33;12.20;99.90
3954;DHT22;1991;48.682;9.030;2022-09-25T05:43:00;12.20;99.90
3954;DHT22;1991;48.682;9.030;2022-09-25T05:45:26;12.20;99.90
3954;DHT22;1991;48.682;9.030;2022-09-25T05:48:06;12.30;99.90
3954;DHT22;1991;48.682;9.030;2022-09-25T05:50:32;12.30;99.90
3954;DHT22;1991;48.682;9.030;2022-09-25T05:53:03;12.20;99.90
3954;DHT22;1991;48.682;9.030;2022-09-25T05:55:29;12.20;99.90
3954;DHT22;1991;48.682;9.030;2022-09-25T05:58:01;12.20;99.90
3954;DHT22;1991;48.682;9.030;2022-09-25T06:00:28;12.20;99.90
3954;DHT22;1991;48.682;9.030;2022-09-25T06:02:57;12.20;99.90
3954;DHT22;1991;48.682;9.030;2022-09-25T06:05:22;12.20;99.90
3954;DHT22;1991;48.682;9.030;2022-09-25T06:07:52;12.20;99.90
3954;DHT22;1991;48.682;9.030;2022-09-25T06:10:18;12.20;99.90
3954;DHT22;1991;48.682;9.030;2022-09-25T06:12:44;12.30;99.90
3954;DHT22;1991;48.682;9.030;2022-09-25T06:15:09;12.30;99.90
3954;DHT22;1991;48.682;9.030;2022-09-25T06:17:35;12.30;99.90
3954;DHT22;1991;48.682;9.030;2022-09-25T06:20:01;12.30;99.90
3954;DHT22;1991;48.682;9.030;2022-09-25T06:22:26;12.30;99.90
3954;DHT22;1991;48.682;9.030;2022-09-25T06:24:52;12.30;99.90
3954;DHT22;1991;48.682;9.030;2022-09-25T06:27:17;12.30;99.90
3954;DHT22;1991;48.682;9.030;2022-09-25T06:29:43;12.40;99.90
3954;DHT22;1991;48.682;9.030;2022-09-25T06:32:08;12.50;99.90
3954;DHT22;1991;48.682;9.030;2022-09-25T06:34:34;12.40;99.90
3954;DHT22;1991;48.682;9.030;2022-09-25T06:37:00;12.50;99.90
3954;DHT22;1991;48.682;9.030;2022-09-25T06:39:25;12.50;99.90
3954;DHT22;1991;48.682;9.030;2022-09-25T06:41:52;12.50;99.90
3954;DHT22;1991;48.682;9.030;2022-09-25T06:44:18;12.50;99.90
3954;DHT22;1991;48.682;9.030;2022-09-25T06:46:50;12.50;99.90
3954;DHT22;1991;48.682;9.030;2022-09-25T06:49:19;12.50;99.90
3954;DHT22;1991;48.682;9.030;2022-09-25T06:51:44;12.50;99.90
3954;DHT22;1991;48.682;9.030;2022-09-25T06:54:11;12.50;99.90
3954;DHT22;1991;48.682;9.030;2022-09-25T06:56:36;12.50;99.90
3954;DHT22;1991;48.682;9.030;2022-09-25T06:59:02;12.50;99.90
3954;DHT22;1991;48.682;9.030;2022-09-25T07:01:28;12.50;99.90
3954;DHT22;1991;48.682;9.030;2022-09-25T07:03:54;12.50;99.90
3954;DHT22;1991;48.682;9.030;2022-09-25T07:06:24;12.50;99.90
3954;DHT22;1991;48.682;9.030;2022-09-25T07:08:51;12.60;99.90
3954;DHT22;1991;48.682;9.030;2022-09-25T07:11:19;12.60;99.90
3954;DHT22;1991;48.682;9.030;2022-09-25T07:13:48;12.70;99.90
3954;DHT22;1991;48.682;9.030;2022-09-25T07:16:19;12.70;99.90
3954;DHT22;1991;48.682;9.030;2022-09-25T07:18:45;12.80;99.90
3954;DHT22;1991;48.682;9.030;2022-09-25T07:21:16;12.80;99.90
3954;DHT22;1991;48.682;9.030;2022-09-25T07:23:42;12.90;99.90
3954;DHT22;1991;48.682;9.030;2022-09-25T07:26:09;12.90;99.90
3954;DHT22;1991;48.682;9.030;2022-09-25T07:28:36;13.00;99.90
3954;DHT22;1991;48.682;9.030;2022-09-25T07:31:17;13.00;99.90
3954;DHT22;1991;48.682;9.030;2022-09-25T07:33:44;13.10;99.90
3954;DHT22;1991;48.682;9.030;2022-09-25T07:36:10;13.10;99.90
3954;DHT22;1991;48.682;9.030;2022-09-25T07:38:36;13.20;99.90
3954;DHT22;1991;48.682;9.030;2022-09-25T07:41:03;13.30;99.90
3954;DHT22;1991;48.682;9.030;2022-09-25T07:43:33;13.30;99.90
3954;DHT22;1991;48.682;9.030;2022-09-25T07:45:59;13.30;99.90
3954;DHT22;1991;48.682;9.030;2022-09-25T07:48:26;13.30;99.90
3954;DHT22;1991;48.682;9.030;2022-09-25T07:50:52;13.40;99.90
3954;DHT22;1991;48.682;9.030;2022-09-25T07:53:19;13.40;99.90
3954;DHT22;1991;48.682;9.030;2022-09-25T07:55:45;13.50;99.90
3954;DHT22;1991;48.682;9.030;2022-09-25T07:58:11;13.60;99.90
3954;DHT22;1991;48.682;9.030;2022-09-25T08:00:37;13.50;99.90
3954;DHT22;1991;48.682;9.030;2022-09-25T08:03:05;13.60;99.90
3954;DHT22;1991;48.682;9.030;2022-09-25T08:05:32;13.60;99.90
3954;DHT22;1991;48.682;9.030;2022-09-25T08:07:58;13.60;99.90
3954;DHT22;1991;48.682;9.030;2022-09-25T08:10:24;13.70;99.90
3954;DHT22;1991;48.682;9.030;2022-09-25T08:12:50;13.70;99.90
3954;DHT22;1991;48.682;9.030;2022-09-25T08:15:16;13.70;99.90
3954;DHT22;1991;48.682;9.030;2022-09-25T08:17:42;13.70;99.90
3954;DHT22;1991;48.682;9.030;2022-09-25T08:20:08;13.70;99.90
3954;DHT22;1991;48.682;9.030;2022-09-25T08:22:34;13.70;99.90
3954;DHT22;1991;48.682;9.030;2022-09-25T08:25:00;13.80;99.90
3954;DHT22;1991;48.682;9.030;2022-09-25T08:27:29;13.90;99.90
3954;DHT22;1991;48.682;9.030;2022-09-25T08:29:55;14.00;99.90
3954;DHT22;1991;48.682;9.030;2022-09-25T08:32:20;14.00;99.90
3954;DHT22;1991;48.682;9.030;2022-09-25T08:34:46;14.10;99.90
3954;DHT22;1991;48.682;9.030;2022-09-25T08:37:13;14.20;99.90
3954;DHT22;1991;48.682;9.030;2022-09-25T08:39:39;14.30;99.90
3954;DHT22;1991;48.682;9.030;2022-09-25T08:42:05;14.30;99.90
3954;DHT22;1991;48.682;9.030;2022-09-25T08:44:51;14.40;99.90
3954;DHT22;1991;48.682;9.030;2022-09-25T08:47:38;14.70;99.90
3954;DHT22;1991;48.682;9.030;2022-09-25T08:50:24;14.80;99.90
3954;DHT22;1991;48.682;9.030;2022-09-25T08:52:55;14.90;99.90
3954;DHT22;1991;48.682;9.030;2022-09-25T08:55:26;15.10;99.90
3954;DHT22;1991;48.682;9.030;2022-09-25T08:58:30;15.20;99.90
3954;DHT22;1991;48.682;9.030;2022-09-25T09:01:06;15.30;99.90
3954;DHT22;1991;48.682;9.030;2022-09-25T09:03:32;15.30;99.90
3954;DHT22;1991;48.682;9.030;2022-09-25T09:06:11;15.40;99.90
3954;DHT22;1991;48.682;9.030;2022-09-25T09:08:37;15.30;99.90
3954;DHT22;1991;48.682;9.030;2022-09-25T09:11:31;15.40;99.90
3954;DHT22;1991;48.682;9.030;2022-09-25T09:14:01;15.50;99.90
3954;DHT22;1991;48.682;9.030;2022-09-25T09:19:00;15.70;99.90
3954;DHT22;1991;48.682;9.030;2022-09-25T09:24:13;15.70;99.90
3954;DHT22;1991;48.682;9.030;2022-09-25T09:31:56;15.30;99.90
3954;DHT22;1991;48.682;9.030;2022-09-25T09:37:48;15.30;99.90
3954;DHT22;1991;48.682;9.030;2022-09-25T09:40:32;15.40;99.90
3954;DHT22;1991;48.682;9.030;2022-09-25T09:46:10;15.90;99.90
3954;DHT22;1991;48.682;9.030;2022-09-25T09:51:23;15.90;99.90
3954;DHT22;1991;48.682;9.030;2022-09-25T09:53:55;16.00;99.90
3954;DHT22;1991;48.682;9.030;2022-09-25T09:56:24;16.10;99.90
3954;DHT22;1991;48.682;9.030;2022-09-25T09:58:56;16.30;99.90
3954;DHT22;1991;48.682;9.030;2022-09-25T10:01:24;16.50;99.90
3954;DHT22;1991;48.682;9.030;2022-09-25T10:04:09;16.80;99.90
3954;DHT22;1991;48.682;9.030;2022-09-25T10:06:38;16.70;99.90
3954;DHT22;1991;48.682;9.030;2022-09-25T10:09:05;16.80;99.90
3954;DHT22;1991;48.682;9.030;2022-09-25T10:11:32;16.80;99.90
3954;DHT22;1991;48.682;9.030;2022-09-25T10:14:02;16.80;99.90
3954;DHT22;1991;48.682;9.030;2022-09-25T10:16:29;16.80;99.90
3954;DHT22;1991;48.682;9.030;2022-09-25T10:19:04;16.60;99.90
3954;DHT22;1991;48.682;9.030;2022-09-25T10:21:42;16.60;99.90
3954;DHT22;1991;48.682;9.030;2022-09-25T10:32:42;16.70;99.90
3954;DHT22;1991;48.682;9.030;2022-09-25T10:35:28;16.80;99.90
3954;DHT22;1991;48.682;9.030;2022-09-25T10:37:59;17.30;99.90
3954;DHT22;1991;48.682;9.030;2022-09-25T10:40:36;17.60;99.90
3954;DHT22;1991;48.682;9.030;2022-09-25T10:45:39;17.50;99.90
3954;DHT22;1991;48.682;9.030;2022-09-25T10:51:15;17.00;99.90
3954;DHT22;1991;48.682;9.030;2022-09-25T10:53:47;16.70;99.90
3954;DHT22;1991;48.682;9.030;2022-09-25T10:56:19;16.60;99.90
3954;DHT22;1991;48.682;9.030;2022-09-25T10:58:56;16.40;99.90
3954;DHT22;1991;48.682;9.030;2022-09-25T11:01:38;16.30;99.90
3954;DHT22;1991;48.682;9.030;2022-09-25T11:06:50;16.00;99.90
3954;DHT22;1991;48.682;9.030;2022-09-25T11:09:22;15.90;99.90
3954;DHT22;1991;48.682;9.030;2022-09-25T11:11:50;15.90;99.90
3954;DHT22;1991;48.682;9.030;2022-09-25T11:14:26;16.00;99.90
3954;DHT22;1991;48.682;9.030;2022-09-25T11:16:58;15.90;99.90
3954;DHT22;1991;48.682;9.030;2022-09-25T11:19:32;15.80;99.90
3954;DHT22;1991;48.682;9.030;2022-09-25T11:22:18;15.80;99.90
3954;DHT22;1991;48.682;9.030;2022-09-25T11:27:47;16.20;99.90
3954;DHT22;1991;48.682;9.030;2022-09-25T11:30:17;16.60;99.90
3954;DHT22;1991;48.682;9.030;2022-09-25T11:33:20;16.80;99.90
3954;DHT22;1991;48.682;9.030;2022-09-25T11:35:49;16.80;99.90
3954;DHT22;1991;48.682;9.030;2022-09-25T11:38:39;17.00;99.90
3954;DHT22;1991;48.682;9.030;2022-09-25T11:47:38;16.50;99.90
3954;DHT22;1991;48.682;9.030;2022-09-25T11:50:11;16.30;99.90
3954;DHT22;1991;48.682;9.030;2022-09-25T11:58:28;15.60;99.90
3954;DHT22;1991;48.682;9.030;2022-09-25T12:06:52;15.30;99.90
3954;DHT22;1991;48.682;9.030;2022-09-25T12:12:37;15.30;99.90
3954;DHT22;1991;48.682;9.030;2022-09-25T12:20:45;15.30;99.90
3954;DHT22;1991;48.682;9.030;2022-09-25T12:23:16;15.30;99.90
3954;DHT22;1991;48.682;9.030;2022-09-25T12:26:05;15.30;99.90
3954;DHT22;1991;48.682;9.030;2022-09-25T12:29:08;15.20;99.90
3954;DHT22;1991;48.682;9.030;2022-09-25T12:31:52;15.10;99.90
3954;DHT22;1991;48.682;9.030;2022-09-25T12:39:41;15.10;99.90
3954;DHT22;1991;48.682;9.030;2022-09-25T12:43:10;15.10;99.90
3954;DHT22;1991;48.682;9.030;2022-09-25T12:45:17;15.10;99.90
3954;DHT22;1991;48.682;9.030;2022-09-25T12:48:03;15.20;99.90
3954;DHT22;1991;48.682;9.030;2022-09-25T12:50:37;15.30;99.90
3954;DHT22;1991;48.682;9.030;2022-09-25T12:53:29;15.50;99.90
3954;DHT22;1991;48.682;9.030;2022-09-25T12:59:08;15.60;99.90
3954;DHT22;1991;48.682;9.030;2022-09-25T13:06:50;16.30;99.90
3954;DHT22;1991;48.682;9.030;2022-09-25T13:09:26;16.60;99.90
3954;DHT22;1991;48.682;9.030;2022-09-25T13:14:41;17.30;99.90
3954;DHT22;1991;48.682;9.030;2022-09-25T13:17:12;17.70;99.90
3954;DHT22;1991;48.682;9.030;2022-09-25T13:19:40;18.40;99.90
3954;DHT22;1991;48.682;9.030;2022-09-25T13:22:08;18.90;99.90
3954;DHT22;1991;48.682;9.030;2022-09-25T13:24:43;19.10;99.90
3954;DHT22;1991;48.682;9.030;2022-09-25T13:27:17;18.90;99.90
3954;DHT22;1991;48.682;9.030;2022-09-25T13:29:59;18.70;99.90
3954;DHT22;1991;48.682;9.030;2022-09-25T13:32:30;18.60;99.90
3954;DHT22;1991;48.682;9.030;2022-09-25T13:35:04;18.50;99.90
3954;DHT22;1991;48.682;9.030;2022-09-25T13:37:34;18.20;99.90
3954;DHT22;1991;48.682;9.030;2022-09-25T13:40:06;17.90;99.90
3954;DHT22;1991;48.682;9.030;2022-09-25T13:42:51;17.70;99.90
3954;DHT22;1991;48.682;9.030;2022-09-25T13:45:33;17.40;99.90
3954;DHT22;1991;48.682;9.030;2022-09-25T13:50:36;16.70;99.90
3954;DHT22;1991;48.682;9.030;2022-09-25T13:53:24;16.60;99.90
3954;DHT22;1991;48.682;9.030;2022-09-25T13:58:23;16.40;99.90
3954;DHT22;1991;48.682;9.030;2022-09-25T14:00:55;16.50;99.90
3954;DHT22;1991;48.682;9.030;2022-09-25T14:03:28;16.70;99.90
3954;DHT22;1991;48.682;9.030;2022-09-25T14:05:57;16.80;99.90
3954;DHT22;1991;48.682;9.030;2022-09-25T14:08:23;16.90;99.90
3954;DHT22;1991;48.682;9.030;2022-09-25T14:10:53;17.00;99.90
3954;DHT22;1991;48.682;9.030;2022-09-25T14:13:21;17.20;99.90
3954;DHT22;1991;48.682;9.030;2022-09-25T14:15:49;17.50;99.90
3954;DHT22;1991;48.682;9.030;2022-09-25T14:18:23;17.70;99.90
3954;DHT22;1991;48.682;9.030;2022-09-25T14:20:56;17.70;99.90
3954;DHT22;1991;48.682;9.030;2022-09-25T14:23:25;17.60;99.90
3954;DHT22;1991;48.682;9.030;2022-09-25T14:26:02;17.40;99.90
3954;DHT22;1991;48.682;9.030;2022-09-25T14:28:33;17.20;99.90
3954;DHT22;1991;48.682;9.030;2022-09-25T14:31:07;17.00;99.90
3954;DHT22;1991;48.682;9.030;2022-09-25T14:47:55;16.80;99.90
3954;DHT22;1991;48.682;9.030;2022-09-25T14:50:27;16.60;99.90
3954;DHT22;1991;48.682;9.030;2022-09-25T14:52:56;16.50;99.90
3954;DHT22;1991;48.682;9.030;2022-09-25T14:55:35;16.40;99.90
3954;DHT22;1991;48.682;9.030;2022-09-25T14:58:03;16.20;99.90
3954;DHT22;1991;48.682;9.030;2022-09-25T15:00:34;16.10;99.90
3954;DHT22;1991;48.682;9.030;2022-09-25T15:03:00;16.10;99.90
3954;DHT22;1991;48.682;9.030;2022-09-25T15:05:28;16.00;99.90
3954;DHT22;1991;48.682;9.030;2022-09-25T15:07:57;15.90;99.90
3954;DHT22;1991;48.682;9.030;2022-09-25T15:12:49;15.80;99.90
3954;DHT22;1991;48.682;9.030;2022-09-25T15:15:16;15.80;99.90
3954;DHT22;1991;48.682;9.030;2022-09-25T15:17:52;15.70;99.90
3954;DHT22;1991;48.682;9.030;2022-09-25T15:20:21;15.80;99.90
3954;DHT22;1991;48.682;9.030;2022-09-25T15:25:28;16.00;99.90
3954;DHT22;1991;48.682;9.030;2022-09-25T15:27:54;15.90;99.90
3954;DHT22;1991;48.682;9.030;2022-09-25T15:30:20;16.00;99.90
3954;DHT22;1991;48.682;9.030;2022-09-25T15:32:49;16.00;99.90
3954;DHT22;1991;48.682;9.030;2022-09-25T15:35:22;16.00;99.90
3954;DHT22;1991;48.682;9.030;2022-09-25T15:37:48;16.00;99.90
3954;DHT22;1991;48.682;9.030;2022-09-25T15:40:20;16.00;99.90
3954;DHT22;1991;48.682;9.030;2022-09-25T15:42:58;16.00;99.90
3954;DHT22;1991;48.682;9.030;2022-09-25T15:45:45;16.00;99.90
3954;DHT22;1991;48.682;9.030;2022-09-25T15:50:50;15.70;99.90
3954;DHT22;1991;48.682;9.030;2022-09-25T15:56:19;15.40;99.90
3954;DHT22;1991;48.682;9.030;2022-09-25T15:58:59;15.30;99.90
3954;DHT22;1991;48.682;9.030;2022-09-25T16:01:35;15.00;99.90
3954;DHT22;1991;48.682;9.030;2022-09-25T16:04:21;14.90;99.90
3954;DHT22;1991;48.682;9.030;2022-09-25T16:09:52;14.60;99.90
3954;DHT22;1991;48.682;9.030;2022-09-25T16:14:45;14.40;99.90
3954;DHT22;1991;48.682;9.030;2022-09-25T16:17:31;14.40;99.90
3954;DHT22;1991;48.682;9.030;2022-09-25T16:20:02;14.30;99.90
3954;DHT22;1991;48.682;9.030;2022-09-25T16:22:37;14.30;99.90
3954;DHT22;1991;48.682;9.030;2022-09-25T16:25:14;14.20;99.90
3954;DHT22;1991;48.682;9.030;2022-09-25T16:27:43;14.20;99.90
3954;DHT22;1991;48.682;9.030;2022-09-25T16:30:20;14.20;99.90
3954;DHT22;1991;48.682;9.030;2022-09-25T16:32:49;14.10;99.90
3954;DHT22;1991;48.682;9.030;2022-09-25T16:35:42;14.10;99.90
3954;DHT22;1991;48.682;9.030;2022-09-25T16:38:33;14.00;99.90
3954;DHT22;1991;48.682;9.030;2022-09-25T16:41:17;14.00;99.90
3954;DHT22;1991;48.682;9.030;2022-09-25T16:43:44;13.90;99.90
3954;DHT22;1991;48.682;9.030;2022-09-25T16:46:18;13.80;99.90
3954;DHT22;1991;48.682;9.030;2022-09-25T16:48:59;13.80;99.90
3954;DHT22;1991;48.682;9.030;2022-09-25T16:51:25;13.80;99.90
3954;DHT22;1991;48.682;9.030;2022-09-25T16:53:52;13.80;99.90
3954;DHT22;1991;48.682;9.030;2022-09-25T16:56:23;13.80;99.90
3954;DHT22;1991;48.682;9.030;2022-09-25T16:58:50;13.70;99.90
3954;DHT22;1991;48.682;9.030;2022-09-25T17:01:17;13.70;99.90
3954;DHT22;1991;48.682;9.030;2022-09-25T17:03:43;13.70;99.90
3954;DHT22;1991;48.682;9.030;2022-09-25T17:06:23;13.60;99.90
3954;DHT22;1991;48.682;9.030;2022-09-25T17:08:51;13.60;99.90
3954;DHT22;1991;48.682;9.030;2022-09-25T17:11:19;13.50;99.90
3954;DHT22;1991;48.682;9.030;2022-09-25T17:13:45;13.50;99.90
3954;DHT22;1991;48.682;9.030;2022-09-25T17:16:11;13.50;99.90
3954;DHT22;1991;48.682;9.030;2022-09-25T17:18:37;13.40;99.90
3954;DHT22;1991;48.682;9.030;2022-09-25T17:21:09;13.30;99.90
3954;DHT22;1991;48.682;9.030;2022-09-25T17:23:36;13.30;99.90
3954;DHT22;1991;48.682;9.030;2022-09-25T17:26:04;13.20;99.90
3954;DHT22;1991;48.682;9.030;2022-09-25T17:28:30;13.20;99.90
3954;DHT22;1991;48.682;9.030;2022-09-25T17:30:58;13.20;99.90
3954;DHT22;1991;48.682;9.030;2022-09-25T17:33:25;13.20;99.90
3954;DHT22;1991;48.682;9.030;2022-09-25T17:36:01;13.20;99.90
3954;DHT22;1991;48.682;9.030;2022-09-25T17:38:31;13.20;99.90
3954;DHT22;1991;48.682;9.030;2022-09-25T17:41:00;13.10;99.90
3954;DHT22;1991;48.682;9.030;2022-09-25T17:43:25;13.10;99.90
3954;DHT22;1991;48.682;9.030;2022-09-25T17:45:55;13.10;99.90
3954;DHT22;1991;48.682;9.030;2022-09-25T17:48:22;13.00;99.90
3954;DHT22;1991;48.682;9.030;2022-09-25T17:50:54;13.00;99.90
3954;DHT22;1991;48.682;9.030;2022-09-25T17:53:22;13.20;99.90
3954;DHT22;1991;48.682;9.030;2022-09-25T17:55:49;13.00;99.90
3954;DHT22;1991;48.682;9.030;2022-09-25T17:58:23;12.90;99.90
3954;DHT22;1991;48.682;9.030;2022-09-25T18:00:51;12.90;99.90
3954;DHT22;1991;48.682;9.030;2022-09-25T18:03:17;12.90;99.90
3954;DHT22;1991;48.682;9.030;2022-09-25T18:05:43;12.90;99.90
3954;DHT22;1991;48.682;9.030;2022-09-25T18:08:10;12.90;99.90
3954;DHT22;1991;48.682;9.030;2022-09-25T18:10:39;12.80;99.90
3954;DHT22;1991;48.682;9.030;2022-09-25T18:13:13;12.80;99.90
3954;DHT22;1991;48.682;9.030;2022-09-25T18:15:50;12.80;99.90
3954;DHT22;1991;48.682;9.030;2022-09-25T18:18:17;12.80;99.90
3954;DHT22;1991;48.682;9.030;2022-09-25T18:20:45;12.80;99.90
3954;DHT22;1991;48.682;9.030;2022-09-25T18:23:30;12.80;99.90
3954;DHT22;1991;48.682;9.030;2022-09-25T18:26:09;12.80;99.90
3954;DHT22;1991;48.682;9.030;2022-09-25T18:28:37;12.80;99.90
3954;DHT22;1991;48.682;9.030;2022-09-25T18:31:03;12.90;99.90
3954;DHT22;1991;48.682;9.030;2022-09-25T18:33:31;12.90;99.90
3954;DHT22;1991;48.682;9.030;2022-09-25T18:35:57;12.90;99.90
3954;DHT22;1991;48.682;9.030;2022-09-25T18:38:24;12.90;99.90
3954;DHT22;1991;48.682;9.030;2022-09-25T18:40:49;13.00;99.90
3954;DHT22;1991;48.682;9.030;2022-09-25T18:43:15;12.80;99.90
3954;DHT22;1991;48.682;9.030;2022-09-25T18:45:47;12.90;99.90
3954;DHT22;1991;48.682;9.030;2022-09-25T18:48:18;12.80;99.90
3954;DHT22;1991;48.682;9.030;2022-09-25T18:51:10;12.80;99.90
3954;DHT22;1991;48.682;9.030;2022-09-25T18:53:35;12.70;99.90
3954;DHT22;1991;48.682;9.030;2022-09-25T18:56:01;12.80;99.90
3954;DHT22;1991;48.682;9.030;2022-09-25T18:58:33;12.80;99.90